sensor_id;sensor_type;location;lat;lon;timestamp;P1;durP1;ratioP1;P2;durP2;ratioP2
60098;SDS011;62818;49.394;8.686;2022-12-17T00:00:22;31.95;;;21.92;;
60098;SDS011;62818;49.394;8.686;2022-12-17T00:01:42;31.13;;;21.55;;
60098;SDS011;62818;49.394;8.686;2022-12-17T00:03:01;29.95;;;20.38;;
60098;SDS011;62818;49.394;8.686;2022-12-17T00:04:20;29.80;;;21.65;;
60098;SDS011;62818;49.394;8.686;2022-12-17T00:05:39;31.10;;;22.13;;
60098;SDS011;62818;49.394;8.686;2022-12-17T00:06:58;31.92;;;21.25;;
60098;SDS011;62818;49.394;8.686;2022-12-17T00:08:17;30.77;;;21.15;;
60098;SDS011;62818;49.394;8.686;2022-12-17T00:09:39;33.10;;;20.98;;
60098;SDS011;62818;49.394;8.686;2022-12-17T00:10:57;33.35;;;21.38;;
60098;SDS011;62818;49.394;8.686;2022-12-17T00:12:16;34.17;;;21.48;;
60098;SDS011;62818;49.394;8.686;2022-12-17T00:13:35;29.95;;;21.92;;
60098;SDS011;62818;49.394;8.686;2022-12-17T00:14:57;34.67;;;22.58;;
60098;SDS011;62818;49.394;8.686;2022-12-17T00:16:16;29.70;;;21.25;;
60098;SDS011;62818;49.394;8.686;2022-12-17T00:17:37;31.45;;;21.83;;
60098;SDS011;62818;49.394;8.686;2022-12-17T00:18:59;29.20;;;21.75;;
60098;SDS011;62818;49.394;8.686;2022-12-17T00:20:26;27.52;;;21.58;;
60098;SDS011;62818;49.394;8.686;2022-12-17T00:21:45;34.20;;;22.67;;
60098;SDS011;62818;49.394;8.686;2022-12-17T00:23:07;34.40;;;21.50;;
60098;SDS011;62818;49.394;8.686;2022-12-17T00:24:28;33.75;;;21.58;;
60098;SDS011;62818;49.394;8.686;2022-12-17T00:25:53;33.20;;;23.02;;
60098;SDS011;62818;49.394;8.686;2022-12-17T00:27:17;33.25;;;23.27;;
60098;SDS011;62818;49.394;8.686;2022-12-17T00:28:36;33.40;;;22.95;;
60098;SDS011;62818;49.394;8.686;2022-12-17T00:29:56;29.77;;;21.17;;
60098;SDS011;62818;49.394;8.686;2022-12-17T00:31:15;31.92;;;21.45;;
60098;SDS011;62818;49.394;8.686;2022-12-17T00:32:36;31.90;;;22.48;;
60098;SDS011;62818;49.394;8.686;2022-12-17T00:33:55;30.02;;;21.65;;
60098;SDS011;62818;49.394;8.686;2022-12-17T00:35:14;31.65;;;21.13;;
60098;SDS011;62818;49.394;8.686;2022-12-17T00:36:33;31.83;;;22.13;;
60098;SDS011;62818;49.394;8.686;2022-12-17T00:37:52;28.13;;;21.27;;
60098;SDS011;62818;49.394;8.686;2022-12-17T00:39:11;31.50;;;22.60;;
60098;SDS011;62818;49.394;8.686;2022-12-17T00:40:31;37.95;;;23.10;;
60098;SDS011;62818;49.394;8.686;2022-12-17T00:42:09;34.05;;;23.48;;
60098;SDS011;62818;49.394;8.686;2022-12-17T00:43:28;31.85;;;23.33;;
60098;SDS011;62818;49.394;8.686;2022-12-17T00:44:48;34.50;;;24.55;;
60098;SDS011;62818;49.394;8.686;2022-12-17T00:46:10;36.15;;;23.27;;
60098;SDS011;62818;49.394;8.686;2022-12-17T00:47:29;37.28;;;25.50;;
60098;SDS011;62818;49.394;8.686;2022-12-17T00:48:48;38.70;;;24.73;;
60098;SDS011;62818;49.394;8.686;2022-12-17T00:50:08;37.78;;;25.85;;
60098;SDS011;62818;49.394;8.686;2022-12-17T00:51:29;43.33;;;28.02;;
60098;SDS011;62818;49.394;8.686;2022-12-17T00:52:50;43.60;;;28.02;;
60098;SDS011;62818;49.394;8.686;2022-12-17T00:54:11;39.90;;;27.38;;
60098;SDS011;62818;49.394;8.686;2022-12-17T00:55:30;41.05;;;27.13;;
60098;SDS011;62818;49.394;8.686;2022-12-17T00:56:51;41.90;;;27.70;;
60098;SDS011;62818;49.394;8.686;2022-12-17T00:58:11;37.83;;;27.08;;
60098;SDS011;62818;49.394;8.686;2022-12-17T00:59:30;45.17;;;29.58;;
60098;SDS011;62818;49.394;8.686;2022-12-17T01:00:49;43.75;;;28.25;;
60098;SDS011;62818;49.394;8.686;2022-12-17T01:02:08;46.67;;;30.73;;
60098;SDS011;62818;49.394;8.686;2022-12-17T01:03:27;43.17;;;28.38;;
60098;SDS011;62818;49.394;8.686;2022-12-17T01:04:49;45.63;;;29.35;;
60098;SDS011;62818;49.394;8.686;2022-12-17T01:06:27;48.38;;;30.42;;
60098;SDS011;62818;49.394;8.686;2022-12-17T01:07:46;46.10;;;29.90;;
60098;SDS011;62818;49.394;8.686;2022-12-17T01:09:07;43.20;;;29.25;;
60098;SDS011;62818;49.394;8.686;2022-12-17T01:10:27;42.40;;;30.23;;
60098;SDS011;62818;49.394;8.686;2022-12-17T01:11:49;42.67;;;28.60;;
60098;SDS011;62818;49.394;8.686;2022-12-17T01:13:14;48.20;;;30.23;;
60098;SDS011;62818;49.394;8.686;2022-12-17T01:14:34;44.15;;;29.52;;
60098;SDS011;62818;49.394;8.686;2022-12-17T01:15:53;45.65;;;30.05;;
60098;SDS011;62818;49.394;8.686;2022-12-17T01:17:14;44.22;;;28.42;;
60098;SDS011;62818;49.394;8.686;2022-12-17T01:18:34;41.38;;;28.63;;
60098;SDS011;62818;49.394;8.686;2022-12-17T01:19:53;44.08;;;29.77;;
60098;SDS011;62818;49.394;8.686;2022-12-17T01:21:12;43.20;;;29.15;;
60098;SDS011;62818;49.394;8.686;2022-12-17T01:22:36;43.33;;;28.50;;
60098;SDS011;62818;49.394;8.686;2022-12-17T01:23:54;45.25;;;29.85;;
60098;SDS011;62818;49.394;8.686;2022-12-17T01:25:14;45.92;;;30.55;;
60098;SDS011;62818;49.394;8.686;2022-12-17T01:26:33;47.65;;;31.13;;
60098;SDS011;62818;49.394;8.686;2022-12-17T01:27:54;45.75;;;29.25;;
60098;SDS011;62818;49.394;8.686;2022-12-17T01:29:21;43.30;;;28.27;;
60098;SDS011;62818;49.394;8.686;2022-12-17T01:30:43;46.90;;;30.48;;
60098;SDS011;62818;49.394;8.686;2022-12-17T01:32:04;43.25;;;28.67;;
60098;SDS011;62818;49.394;8.686;2022-12-17T01:33:23;46.88;;;28.58;;
60098;SDS011;62818;49.394;8.686;2022-12-17T01:34:42;45.70;;;30.38;;
60098;SDS011;62818;49.394;8.686;2022-12-17T01:36:01;46.15;;;28.60;;
60098;SDS011;62818;49.394;8.686;2022-12-17T01:37:23;45.95;;;29.08;;
60098;SDS011;62818;49.394;8.686;2022-12-17T01:38:42;43.72;;;28.50;;
60098;SDS011;62818;49.394;8.686;2022-12-17T01:40:04;44.00;;;29.17;;
60098;SDS011;62818;49.394;8.686;2022-12-17T01:42:45;43.70;;;29.15;;
60098;SDS011;62818;49.394;8.686;2022-12-17T01:46:15;44.05;;;29.45;;
60098;SDS011;62818;49.394;8.686;2022-12-17T01:49:08;45.70;;;29.05;;
60098;SDS011;62818;49.394;8.686;2022-12-17T01:50:31;46.92;;;28.38;;
60098;SDS011;62818;49.394;8.686;2022-12-17T01:51:55;42.70;;;28.13;;
60098;SDS011;62818;49.394;8.686;2022-12-17T01:53:18;42.97;;;26.02;;
60098;SDS011;62818;49.394;8.686;2022-12-17T01:54:44;38.28;;;24.63;;
60098;SDS011;62818;49.394;8.686;2022-12-17T01:56:06;38.55;;;26.30;;
60098;SDS011;62818;49.394;8.686;2022-12-17T01:57:28;36.95;;;25.35;;
60098;SDS011;62818;49.394;8.686;2022-12-17T01:58:48;34.42;;;24.13;;
60098;SDS011;62818;49.394;8.686;2022-12-17T02:00:08;38.00;;;23.98;;
60098;SDS011;62818;49.394;8.686;2022-12-17T02:01:31;34.33;;;22.95;;
60098;SDS011;62818;49.394;8.686;2022-12-17T02:02:50;34.47;;;23.25;;
60098;SDS011;62818;49.394;8.686;2022-12-17T02:04:10;34.03;;;23.15;;
60098;SDS011;62818;49.394;8.686;2022-12-17T02:05:44;35.22;;;22.80;;
60098;SDS011;62818;49.394;8.686;2022-12-17T02:08:02;36.42;;;24.60;;
60098;SDS011;62818;49.394;8.686;2022-12-17T02:09:37;39.35;;;26.15;;
60098;SDS011;62818;49.394;8.686;2022-12-17T02:12:44;44.42;;;28.55;;
60098;SDS011;62818;49.394;8.686;2022-12-17T02:14:26;37.47;;;25.27;;
60098;SDS011;62818;49.394;8.686;2022-12-17T02:16:14;33.15;;;21.70;;
60098;SDS011;62818;49.394;8.686;2022-12-17T02:17:48;30.33;;;21.55;;
60098;SDS011;62818;49.394;8.686;2022-12-17T02:19:38;33.67;;;21.38;;
60098;SDS011;62818;49.394;8.686;2022-12-17T02:21:16;30.48;;;22.00;;
60098;SDS011;62818;49.394;8.686;2022-12-17T02:22:48;34.67;;;22.48;;
60098;SDS011;62818;49.394;8.686;2022-12-17T02:24:51;36.28;;;25.38;;
60098;SDS011;62818;49.394;8.686;2022-12-17T02:27:55;40.72;;;26.63;;
60098;SDS011;62818;49.394;8.686;2022-12-17T02:29:14;42.80;;;26.08;;
60098;SDS011;62818;49.394;8.686;2022-12-17T02:30:36;43.63;;;27.98;;
60098;SDS011;62818;49.394;8.686;2022-12-17T02:31:56;40.63;;;26.35;;
60098;SDS011;62818;49.394;8.686;2022-12-17T02:33:18;42.05;;;26.17;;
60098;SDS011;62818;49.394;8.686;2022-12-17T02:34:44;42.67;;;25.70;;
60098;SDS011;62818;49.394;8.686;2022-12-17T02:36:10;40.10;;;26.58;;
60098;SDS011;62818;49.394;8.686;2022-12-17T02:37:29;40.85;;;25.67;;
60098;SDS011;62818;49.394;8.686;2022-12-17T02:38:48;39.67;;;24.92;;
60098;SDS011;62818;49.394;8.686;2022-12-17T02:40:08;39.90;;;26.08;;
60098;SDS011;62818;49.394;8.686;2022-12-17T02:41:28;37.50;;;25.30;;
60098;SDS011;62818;49.394;8.686;2022-12-17T02:43:01;42.65;;;26.38;;
60098;SDS011;62818;49.394;8.686;2022-12-17T02:44:22;38.72;;;26.08;;
60098;SDS011;62818;49.394;8.686;2022-12-17T02:45:43;38.15;;;24.33;;
60098;SDS011;62818;49.394;8.686;2022-12-17T02:47:05;38.60;;;25.90;;
60098;SDS011;62818;49.394;8.686;2022-12-17T02:48:31;39.75;;;27.52;;
60098;SDS011;62818;49.394;8.686;2022-12-17T02:49:59;41.72;;;27.38;;
60098;SDS011;62818;49.394;8.686;2022-12-17T02:51:18;37.90;;;26.05;;
60098;SDS011;62818;49.394;8.686;2022-12-17T02:52:39;39.28;;;25.60;;
60098;SDS011;62818;49.394;8.686;2022-12-17T02:54:09;39.03;;;25.42;;
60098;SDS011;62818;49.394;8.686;2022-12-17T02:55:28;40.08;;;23.83;;
60098;SDS011;62818;49.394;8.686;2022-12-17T02:56:52;40.60;;;26.02;;
60098;SDS011;62818;49.394;8.686;2022-12-17T02:58:11;36.85;;;24.83;;
60098;SDS011;62818;49.394;8.686;2022-12-17T02:59:30;38.53;;;24.95;;
60098;SDS011;62818;49.394;8.686;2022-12-17T03:00:49;35.97;;;24.58;;
60098;SDS011;62818;49.394;8.686;2022-12-17T03:02:16;34.38;;;22.40;;
60098;SDS011;62818;49.394;8.686;2022-12-17T03:03:35;32.15;;;22.98;;
60098;SDS011;62818;49.394;8.686;2022-12-17T03:04:54;32.08;;;21.83;;
60098;SDS011;62818;49.394;8.686;2022-12-17T03:06:18;31.85;;;22.65;;
60098;SDS011;62818;49.394;8.686;2022-12-17T03:07:37;34.17;;;21.30;;
60098;SDS011;62818;49.394;8.686;2022-12-17T03:08:59;35.90;;;23.92;;
60098;SDS011;62818;49.394;8.686;2022-12-17T03:10:18;34.33;;;22.38;;
60098;SDS011;62818;49.394;8.686;2022-12-17T03:11:38;31.65;;;22.08;;
60098;SDS011;62818;49.394;8.686;2022-12-17T03:13:02;32.58;;;20.90;;
60098;SDS011;62818;49.394;8.686;2022-12-17T03:14:21;29.38;;;20.52;;
60098;SDS011;62818;49.394;8.686;2022-12-17T03:15:40;30.38;;;20.23;;
60098;SDS011;62818;49.394;8.686;2022-12-17T03:16:59;25.70;;;18.92;;
60098;SDS011;62818;49.394;8.686;2022-12-17T03:18:19;27.73;;;19.58;;
60098;SDS011;62818;49.394;8.686;2022-12-17T03:19:38;32.67;;;21.48;;
60098;SDS011;62818;49.394;8.686;2022-12-17T03:21:00;28.67;;;19.50;;
60098;SDS011;62818;49.394;8.686;2022-12-17T03:22:19;32.95;;;21.48;;
60098;SDS011;62818;49.394;8.686;2022-12-17T03:23:40;29.65;;;21.35;;
60098;SDS011;62818;49.394;8.686;2022-12-17T03:24:59;34.35;;;21.95;;
60098;SDS011;62818;49.394;8.686;2022-12-17T03:26:23;30.90;;;21.40;;
60098;SDS011;62818;49.394;8.686;2022-12-17T03:27:53;31.75;;;21.13;;
60098;SDS011;62818;49.394;8.686;2022-12-17T03:29:12;31.05;;;22.15;;
60098;SDS011;62818;49.394;8.686;2022-12-17T03:30:31;36.10;;;24.40;;
60098;SDS011;62818;49.394;8.686;2022-12-17T03:31:50;35.78;;;23.60;;
60098;SDS011;62818;49.394;8.686;2022-12-17T03:33:12;36.78;;;25.05;;
60098;SDS011;62818;49.394;8.686;2022-12-17T03:34:31;32.53;;;24.67;;
60098;SDS011;62818;49.394;8.686;2022-12-17T03:35:51;39.30;;;26.05;;
60098;SDS011;62818;49.394;8.686;2022-12-17T03:37:11;38.45;;;26.20;;
60098;SDS011;62818;49.394;8.686;2022-12-17T03:38:30;41.60;;;25.88;;
60098;SDS011;62818;49.394;8.686;2022-12-17T03:39:52;43.25;;;26.88;;
60098;SDS011;62818;49.394;8.686;2022-12-17T03:41:11;45.70;;;28.27;;
60098;SDS011;62818;49.394;8.686;2022-12-17T03:42:32;48.30;;;28.15;;
60098;SDS011;62818;49.394;8.686;2022-12-17T03:43:54;43.88;;;27.58;;
60098;SDS011;62818;49.394;8.686;2022-12-17T03:45:15;45.72;;;28.83;;
60098;SDS011;62818;49.394;8.686;2022-12-17T03:46:34;44.72;;;29.08;;
60098;SDS011;62818;49.394;8.686;2022-12-17T03:48:09;47.35;;;29.52;;
60098;SDS011;62818;49.394;8.686;2022-12-17T03:49:31;48.97;;;31.60;;
60098;SDS011;62818;49.394;8.686;2022-12-17T03:50:50;47.83;;;30.02;;
60098;SDS011;62818;49.394;8.686;2022-12-17T03:52:11;42.75;;;29.88;;
60098;SDS011;62818;49.394;8.686;2022-12-17T03:53:32;48.95;;;31.20;;
60098;SDS011;62818;49.394;8.686;2022-12-17T03:54:54;49.78;;;29.67;;
60098;SDS011;62818;49.394;8.686;2022-12-17T03:56:15;46.53;;;29.90;;
60098;SDS011;62818;49.394;8.686;2022-12-17T03:57:37;54.20;;;33.22;;
60098;SDS011;62818;49.394;8.686;2022-12-17T03:58:56;53.33;;;33.08;;
60098;SDS011;62818;49.394;8.686;2022-12-17T04:00:15;49.78;;;30.05;;
60098;SDS011;62818;49.394;8.686;2022-12-17T04:01:34;52.67;;;31.35;;
60098;SDS011;62818;49.394;8.686;2022-12-17T04:02:54;61.38;;;32.55;;
60098;SDS011;62818;49.394;8.686;2022-12-17T04:04:13;51.67;;;31.60;;
60098;SDS011;62818;49.394;8.686;2022-12-17T04:05:32;57.40;;;32.72;;
60098;SDS011;62818;49.394;8.686;2022-12-17T04:06:51;53.22;;;32.42;;
60098;SDS011;62818;49.394;8.686;2022-12-17T04:08:12;51.75;;;30.30;;
60098;SDS011;62818;49.394;8.686;2022-12-17T04:09:31;47.67;;;30.92;;
60098;SDS011;62818;49.394;8.686;2022-12-17T04:10:53;55.45;;;32.63;;
60098;SDS011;62818;49.394;8.686;2022-12-17T04:12:12;58.85;;;32.88;;
60098;SDS011;62818;49.394;8.686;2022-12-17T04:13:31;49.33;;;30.70;;
60098;SDS011;62818;49.394;8.686;2022-12-17T04:14:50;56.22;;;32.28;;
60098;SDS011;62818;49.394;8.686;2022-12-17T04:16:11;51.37;;;31.13;;
60098;SDS011;62818;49.394;8.686;2022-12-17T04:17:33;63.50;;;32.35;;
60098;SDS011;62818;49.394;8.686;2022-12-17T04:18:52;57.72;;;33.97;;
60098;SDS011;62818;49.394;8.686;2022-12-17T04:20:11;63.50;;;33.50;;
60098;SDS011;62818;49.394;8.686;2022-12-17T04:21:33;64.97;;;35.17;;
60098;SDS011;62818;49.394;8.686;2022-12-17T04:22:52;63.60;;;33.83;;
60098;SDS011;62818;49.394;8.686;2022-12-17T04:24:11;60.95;;;34.20;;
60098;SDS011;62818;49.394;8.686;2022-12-17T04:25:43;68.30;;;34.35;;
60098;SDS011;62818;49.394;8.686;2022-12-17T04:27:03;66.97;;;35.88;;
60098;SDS011;62818;49.394;8.686;2022-12-17T04:28:22;66.00;;;35.63;;
60098;SDS011;62818;49.394;8.686;2022-12-17T04:29:44;68.88;;;35.20;;
60098;SDS011;62818;49.394;8.686;2022-12-17T04:31:05;71.25;;;35.70;;
60098;SDS011;62818;49.394;8.686;2022-12-17T04:32:24;66.50;;;34.30;;
60098;SDS011;62818;49.394;8.686;2022-12-17T04:33:45;67.15;;;35.47;;
60098;SDS011;62818;49.394;8.686;2022-12-17T04:35:05;63.40;;;33.63;;
60098;SDS011;62818;49.394;8.686;2022-12-17T04:36:24;78.70;;;35.47;;
60098;SDS011;62818;49.394;8.686;2022-12-17T04:37:43;68.28;;;34.38;;
60098;SDS011;62818;49.394;8.686;2022-12-17T04:39:04;67.63;;;35.90;;
60098;SDS011;62818;49.394;8.686;2022-12-17T04:40:26;64.40;;;34.40;;
60098;SDS011;62818;49.394;8.686;2022-12-17T04:41:45;79.85;;;35.97;;
60098;SDS011;62818;49.394;8.686;2022-12-17T04:43:05;70.88;;;36.53;;
60098;SDS011;62818;49.394;8.686;2022-12-17T04:44:26;64.10;;;35.83;;
60098;SDS011;62818;49.394;8.686;2022-12-17T04:45:50;57.30;;;32.85;;
60098;SDS011;62818;49.394;8.686;2022-12-17T04:47:10;56.47;;;33.47;;
60098;SDS011;62818;49.394;8.686;2022-12-17T04:48:31;57.30;;;32.97;;
60098;SDS011;62818;49.394;8.686;2022-12-17T04:49:50;57.70;;;33.90;;
60098;SDS011;62818;49.394;8.686;2022-12-17T04:51:09;58.40;;;33.30;;
60098;SDS011;62818;49.394;8.686;2022-12-17T04:52:30;51.25;;;32.85;;
60098;SDS011;62818;49.394;8.686;2022-12-17T04:53:49;51.28;;;31.40;;
60098;SDS011;62818;49.394;8.686;2022-12-17T04:55:08;51.35;;;31.90;;
60098;SDS011;62818;49.394;8.686;2022-12-17T04:56:30;48.17;;;31.52;;
60098;SDS011;62818;49.394;8.686;2022-12-17T04:57:49;56.97;;;32.20;;
60098;SDS011;62818;49.394;8.686;2022-12-17T04:59:11;57.83;;;33.60;;
60098;SDS011;62818;49.394;8.686;2022-12-17T05:00:32;50.38;;;31.23;;
60098;SDS011;62818;49.394;8.686;2022-12-17T05:01:51;53.80;;;30.83;;
60098;SDS011;62818;49.394;8.686;2022-12-17T05:03:14;57.58;;;32.08;;
60098;SDS011;62818;49.394;8.686;2022-12-17T05:04:38;54.95;;;30.67;;
60098;SDS011;62818;49.394;8.686;2022-12-17T05:05:57;54.13;;;31.70;;
60098;SDS011;62818;49.394;8.686;2022-12-17T05:07:17;58.25;;;33.05;;
60098;SDS011;62818;49.394;8.686;2022-12-17T05:08:41;48.25;;;31.10;;
60098;SDS011;62818;49.394;8.686;2022-12-17T05:10:03;50.17;;;30.02;;
60098;SDS011;62818;49.394;8.686;2022-12-17T05:11:23;54.92;;;32.33;;
60098;SDS011;62818;49.394;8.686;2022-12-17T05:12:42;54.70;;;31.13;;
60098;SDS011;62818;49.394;8.686;2022-12-17T05:14:03;55.95;;;33.58;;
60098;SDS011;62818;49.394;8.686;2022-12-17T05:15:25;63.00;;;33.63;;
60098;SDS011;62818;49.394;8.686;2022-12-17T05:16:44;62.47;;;33.03;;
60098;SDS011;62818;49.394;8.686;2022-12-17T05:18:06;60.78;;;32.78;;
60098;SDS011;62818;49.394;8.686;2022-12-17T05:19:26;61.33;;;33.33;;
60098;SDS011;62818;49.394;8.686;2022-12-17T05:20:45;63.30;;;33.42;;
60098;SDS011;62818;49.394;8.686;2022-12-17T05:22:04;64.32;;;33.25;;
60098;SDS011;62818;49.394;8.686;2022-12-17T05:23:26;59.85;;;33.97;;
60098;SDS011;62818;49.394;8.686;2022-12-17T05:24:47;59.90;;;31.73;;
60098;SDS011;62818;49.394;8.686;2022-12-17T05:26:12;56.67;;;32.05;;
60098;SDS011;62818;49.394;8.686;2022-12-17T05:27:40;60.63;;;32.25;;
60098;SDS011;62818;49.394;8.686;2022-12-17T05:29:03;59.17;;;31.80;;
60098;SDS011;62818;49.394;8.686;2022-12-17T05:30:22;52.15;;;31.05;;
60098;SDS011;62818;49.394;8.686;2022-12-17T05:31:43;55.53;;;32.45;;
60098;SDS011;62818;49.394;8.686;2022-12-17T05:33:02;59.05;;;31.85;;
60098;SDS011;62818;49.394;8.686;2022-12-17T05:34:21;50.47;;;29.70;;
60098;SDS011;62818;49.394;8.686;2022-12-17T05:35:40;50.00;;;27.98;;
60098;SDS011;62818;49.394;8.686;2022-12-17T05:37:02;47.80;;;29.10;;
60098;SDS011;62818;49.394;8.686;2022-12-17T05:38:21;45.80;;;27.52;;
60098;SDS011;62818;49.394;8.686;2022-12-17T05:39:42;41.75;;;27.10;;
60098;SDS011;62818;49.394;8.686;2022-12-17T05:41:04;43.95;;;29.17;;
60098;SDS011;62818;49.394;8.686;2022-12-17T05:42:23;55.60;;;29.13;;
60098;SDS011;62818;49.394;8.686;2022-12-17T05:43:45;59.33;;;30.85;;
60098;SDS011;62818;49.394;8.686;2022-12-17T05:45:04;55.75;;;30.35;;
60098;SDS011;62818;49.394;8.686;2022-12-17T05:46:23;54.45;;;30.50;;
60098;SDS011;62818;49.394;8.686;2022-12-17T05:47:48;56.65;;;30.13;;
60098;SDS011;62818;49.394;8.686;2022-12-17T05:49:07;57.22;;;29.90;;
60098;SDS011;62818;49.394;8.686;2022-12-17T05:50:26;68.72;;;31.02;;
60098;SDS011;62818;49.394;8.686;2022-12-17T05:51:46;51.33;;;30.00;;
60098;SDS011;62818;49.394;8.686;2022-12-17T05:53:07;51.30;;;30.70;;
60098;SDS011;62818;49.394;8.686;2022-12-17T05:54:26;62.53;;;30.13;;
60098;SDS011;62818;49.394;8.686;2022-12-17T05:55:52;57.80;;;32.20;;
60098;SDS011;62818;49.394;8.686;2022-12-17T05:57:11;54.70;;;30.45;;
60098;SDS011;62818;49.394;8.686;2022-12-17T05:58:44;52.15;;;31.08;;
60098;SDS011;62818;49.394;8.686;2022-12-17T06:00:03;53.33;;;30.60;;
60098;SDS011;62818;49.394;8.686;2022-12-17T06:01:23;60.38;;;31.73;;
60098;SDS011;62818;49.394;8.686;2022-12-17T06:02:45;55.30;;;31.25;;
60098;SDS011;62818;49.394;8.686;2022-12-17T06:04:14;55.60;;;30.95;;
60098;SDS011;62818;49.394;8.686;2022-12-17T06:05:46;56.40;;;31.85;;
60098;SDS011;62818;49.394;8.686;2022-12-17T06:07:14;68.63;;;31.70;;
60098;SDS011;62818;49.394;8.686;2022-12-17T06:08:33;81.10;;;31.30;;
60098;SDS011;62818;49.394;8.686;2022-12-17T06:09:53;49.67;;;29.45;;
60098;SDS011;62818;49.394;8.686;2022-12-17T06:11:14;53.00;;;28.20;;
60098;SDS011;62818;49.394;8.686;2022-12-17T06:12:34;50.47;;;28.60;;
60098;SDS011;62818;49.394;8.686;2022-12-17T06:13:53;97.57;;;28.13;;
60098;SDS011;62818;49.394;8.686;2022-12-17T06:15:12;50.28;;;29.10;;
60098;SDS011;62818;49.394;8.686;2022-12-17T06:16:36;52.50;;;28.23;;
60098;SDS011;62818;49.394;8.686;2022-12-17T06:17:55;50.72;;;28.13;;
60098;SDS011;62818;49.394;8.686;2022-12-17T06:19:15;49.38;;;28.08;;
60098;SDS011;62818;49.394;8.686;2022-12-17T06:20:36;55.05;;;28.20;;
60098;SDS011;62818;49.394;8.686;2022-12-17T06:21:56;41.97;;;28.33;;
60098;SDS011;62818;49.394;8.686;2022-12-17T06:23:17;49.33;;;30.23;;
60098;SDS011;62818;49.394;8.686;2022-12-17T06:24:36;80.15;;;30.00;;
60098;SDS011;62818;49.394;8.686;2022-12-17T06:25:55;50.22;;;28.88;;
60098;SDS011;62818;49.394;8.686;2022-12-17T06:27:15;44.58;;;28.23;;
60098;SDS011;62818;49.394;8.686;2022-12-17T06:28:40;87.03;;;30.20;;
60098;SDS011;62818;49.394;8.686;2022-12-17T06:30:00;72.22;;;29.75;;
60098;SDS011;62818;49.394;8.686;2022-12-17T06:31:20;48.05;;;28.50;;
60098;SDS011;62818;49.394;8.686;2022-12-17T06:32:39;44.83;;;28.70;;
60098;SDS011;62818;49.394;8.686;2022-12-17T06:33:58;46.00;;;29.52;;
60098;SDS011;62818;49.394;8.686;2022-12-17T06:35:36;41.47;;;27.00;;
60098;SDS011;62818;49.394;8.686;2022-12-17T06:36:55;43.47;;;28.52;;
60098;SDS011;62818;49.394;8.686;2022-12-17T06:38:14;45.50;;;27.75;;
60098;SDS011;62818;49.394;8.686;2022-12-17T06:39:36;46.40;;;28.35;;
60098;SDS011;62818;49.394;8.686;2022-12-17T06:41:00;47.85;;;28.98;;
60098;SDS011;62818;49.394;8.686;2022-12-17T06:42:20;43.40;;;28.80;;
60098;SDS011;62818;49.394;8.686;2022-12-17T06:43:39;42.85;;;27.98;;
60098;SDS011;62818;49.394;8.686;2022-12-17T06:44:58;49.67;;;28.83;;
60098;SDS011;62818;49.394;8.686;2022-12-17T06:46:17;41.15;;;26.98;;
60098;SDS011;62818;49.394;8.686;2022-12-17T06:47:36;42.65;;;28.00;;
60098;SDS011;62818;49.394;8.686;2022-12-17T06:49:12;45.72;;;28.05;;
60098;SDS011;62818;49.394;8.686;2022-12-17T06:50:31;44.10;;;26.08;;
60098;SDS011;62818;49.394;8.686;2022-12-17T06:51:52;37.42;;;26.35;;
60098;SDS011;62818;49.394;8.686;2022-12-17T06:53:14;39.45;;;27.38;;
60098;SDS011;62818;49.394;8.686;2022-12-17T06:54:33;44.92;;;27.88;;
60098;SDS011;62818;49.394;8.686;2022-12-17T06:55:52;42.53;;;26.50;;
60098;SDS011;62818;49.394;8.686;2022-12-17T06:57:14;41.60;;;25.58;;
60098;SDS011;62818;49.394;8.686;2022-12-17T06:58:36;38.45;;;26.48;;
60098;SDS011;62818;49.394;8.686;2022-12-17T07:00:00;52.67;;;28.42;;
60098;SDS011;62818;49.394;8.686;2022-12-17T07:01:19;50.17;;;29.55;;
60098;SDS011;62818;49.394;8.686;2022-12-17T07:02:39;50.58;;;30.27;;
60098;SDS011;62818;49.394;8.686;2022-12-17T07:03:58;57.58;;;32.67;;
60098;SDS011;62818;49.394;8.686;2022-12-17T07:05:17;59.42;;;33.60;;
60098;SDS011;62818;49.394;8.686;2022-12-17T07:06:37;54.65;;;31.90;;
60098;SDS011;62818;49.394;8.686;2022-12-17T07:07:57;49.05;;;28.70;;
60098;SDS011;62818;49.394;8.686;2022-12-17T07:09:19;53.45;;;31.05;;
60098;SDS011;62818;49.394;8.686;2022-12-17T07:10:38;54.70;;;31.63;;
60098;SDS011;62818;49.394;8.686;2022-12-17T07:11:57;52.88;;;30.02;;
60098;SDS011;62818;49.394;8.686;2022-12-17T07:13:18;49.42;;;31.48;;
60098;SDS011;62818;49.394;8.686;2022-12-17T07:14:40;48.42;;;29.45;;
60098;SDS011;62818;49.394;8.686;2022-12-17T07:15:59;49.17;;;30.20;;
60098;SDS011;62818;49.394;8.686;2022-12-17T07:17:18;48.53;;;29.33;;
60098;SDS011;62818;49.394;8.686;2022-12-17T07:18:37;48.72;;;28.90;;
60098;SDS011;62818;49.394;8.686;2022-12-17T07:19:56;50.80;;;29.05;;
60098;SDS011;62818;49.394;8.686;2022-12-17T07:21:15;47.20;;;28.88;;
60098;SDS011;62818;49.394;8.686;2022-12-17T07:22:37;47.58;;;28.63;;
60098;SDS011;62818;49.394;8.686;2022-12-17T07:23:58;48.45;;;27.35;;
60098;SDS011;62818;49.394;8.686;2022-12-17T07:25:17;43.75;;;28.13;;
60098;SDS011;62818;49.394;8.686;2022-12-17T07:26:36;46.58;;;28.02;;
60098;SDS011;62818;49.394;8.686;2022-12-17T07:28:00;45.47;;;28.05;;
60098;SDS011;62818;49.394;8.686;2022-12-17T07:29:19;44.00;;;27.30;;
60098;SDS011;62818;49.394;8.686;2022-12-17T07:30:38;48.13;;;28.85;;
60098;SDS011;62818;49.394;8.686;2022-12-17T07:32:01;48.50;;;27.90;;
60098;SDS011;62818;49.394;8.686;2022-12-17T07:33:20;43.93;;;27.53;;
60098;SDS011;62818;49.394;8.686;2022-12-17T07:34:41;46.97;;;28.67;;
60098;SDS011;62818;49.394;8.686;2022-12-17T07:36:00;43.97;;;28.17;;
60098;SDS011;62818;49.394;8.686;2022-12-17T07:37:19;45.50;;;28.92;;
60098;SDS011;62818;49.394;8.686;2022-12-17T07:38:39;47.72;;;27.67;;
60098;SDS011;62818;49.394;8.686;2022-12-17T07:39:58;46.10;;;28.30;;
60098;SDS011;62818;49.394;8.686;2022-12-17T07:41:17;44.97;;;28.80;;
60098;SDS011;62818;49.394;8.686;2022-12-17T07:42:37;47.92;;;28.48;;
60098;SDS011;62818;49.394;8.686;2022-12-17T07:44:00;47.42;;;28.73;;
60098;SDS011;62818;49.394;8.686;2022-12-17T07:45:24;46.60;;;28.13;;
60098;SDS011;62818;49.394;8.686;2022-12-17T07:46:46;48.13;;;28.33;;
60098;SDS011;62818;49.394;8.686;2022-12-17T07:48:07;49.95;;;29.05;;
60098;SDS011;62818;49.394;8.686;2022-12-17T07:49:27;58.25;;;28.83;;
60098;SDS011;62818;49.394;8.686;2022-12-17T07:50:49;50.28;;;29.13;;
60098;SDS011;62818;49.394;8.686;2022-12-17T07:52:09;48.78;;;28.58;;
60098;SDS011;62818;49.394;8.686;2022-12-17T07:53:33;48.22;;;27.88;;
60098;SDS011;62818;49.394;8.686;2022-12-17T07:54:54;52.23;;;29.77;;
60098;SDS011;62818;49.394;8.686;2022-12-17T07:56:13;53.15;;;29.95;;
60098;SDS011;62818;49.394;8.686;2022-12-17T07:57:32;49.47;;;28.27;;
60098;SDS011;62818;49.394;8.686;2022-12-17T07:58:51;57.08;;;29.17;;
60098;SDS011;62818;49.394;8.686;2022-12-17T08:00:11;48.42;;;27.80;;
60098;SDS011;62818;49.394;8.686;2022-12-17T08:01:30;59.75;;;31.15;;
60098;SDS011;62818;49.394;8.686;2022-12-17T08:02:54;52.70;;;29.05;;
60098;SDS011;62818;49.394;8.686;2022-12-17T08:04:22;56.75;;;30.00;;
60098;SDS011;62818;49.394;8.686;2022-12-17T08:05:41;61.13;;;30.08;;